Old Milo, Arkansas
Current Conditions -  °F | °C
As of 2:15 AM on Monday 24 Nov 2014 (Local Time) from KBQP Reporting Station
Clear Clear  
Wind Chill: 58°   Ceiling: Unl
Heat Index: 58°   Visibility: 10mi
Dew Point: 49°   Wind: 15mph
Humidity: 72%   Direction: 250°WSW
Pressure: 29.68"   Gusts: 20mph
Location:  33.1762°N, 91.7595°W
Report Text: KBQP 240815Z AUTO 25013G17KT 10SM CLR 15/10 A2968 RMK AO2 T01450095
Loading
Personal Weather Stations






























Interactive Weather Map New forecast layout! Learn more

10-Day Weather Forecast

Advertisements
Track Severe Weather on mobile